Miami, Florida
Traffic Map
Current Weather Conditions
Miami, Florida
Scattered Clouds
Scattered Clouds
32°
Feels Like: 37°
Wind Chill: 32° Ceiling: Unl
Heat Index: 37° Visibility: 10mi
Dew Point: 23° Wind: 7mph
Humidity: 61% Direction: 280° (W)
Pressure: 30.03in Gusts: 0mph
Raw Report DataKMIA 021553Z 28006KT 10SM SCT026 SCT030 SCT250 32/23 A3003 RMK AO2 SLP170 CB DSNT SE MOV E T03170233
Traffic Incident Summary
Active as of:
Severity:
Category:
InformationThere was an issue retrieving the traffic information for this location. Please try a different location or try again shortly.
Advertisements
Track Severe Weather on mobile